Time,TemperatureF,DewpointF,PressureIn,WindDirection,WindDirectionDegrees,WindSpeedMPH,WindSpeedGustMPH,Humidity,HourlyPrecipIn,Conditions,Clouds,dailyrainin,SoftwareType,DateUTC
2017-07-28 00:06:00,59.1,48.9,29.87,ENE,58,0.0,0.0,69,0.00,,,0.00,WeatherCatV2.41B14,2017-07-28 07:06:00,
2017-07-28 00:16:00,59.0,49.6,29.87,ENE,58,0.0,0.0,71,0.00,,,0.00,WeatherCatV2.41B14,2017-07-28 07:16:00,
2017-07-28 00:26:00,59.0,49.6,29.87,ENE,58,0.0,0.0,71,0.00,,,0.00,WeatherCatV2.41B14,2017-07-28 07:26:00,
2017-07-28 00:36:00,60.2,51.5,29.87,ENE,58,0.0,0.0,73,0.00,,,0.00,WeatherCatV2.41B14,2017-07-28 07:36:00,
2017-07-28 00:46:00,61.5,53.5,29.87,ENE,58,0.0,0.0,75,0.00,,,0.00,WeatherCatV2.41B14,2017-07-28 07:46:00,
2017-07-28 00:56:00,62.0,54.0,29.87,ENE,57,0.0,0.0,75,0.00,,,0.00,WeatherCatV2.41B14,2017-07-28 07:56:00,
2017-07-28 01:06:00,62.7,54.3,29.86,ENE,58,0.0,0.0,74,0.00,,,0.00,WeatherCatV2.41B14,2017-07-28 08:06:00,
2017-07-28 01:16:00,62.1,53.7,29.86,ENE,58,0.0,0.0,74,0.00,,,0.00,WeatherCatV2.41B14,2017-07-28 08:16:00,
2017-07-28 01:26:00,62.2,53.8,29.86,ENE,58,0.0,0.0,74,0.00,,,0.00,WeatherCatV2.41B14,2017-07-28 08:26:00,
2017-07-28 01:36:00,63.2,54.4,29.86,ENE,58,0.0,0.0,73,0.00,,,0.00,WeatherCatV2.41B14,2017-07-28 08:36:00,
2017-07-28 01:46:00,62.9,54.1,29.86,ENE,58,0.0,0.0,73,0.00,,,0.00,WeatherCatV2.41B14,2017-07-28 08:46:00,
2017-07-28 01:56:00,63.0,54.2,29.86,ENE,58,0.0,0.0,73,0.00,,,0.00,WeatherCatV2.41B14,2017-07-28 08:56:00,
2017-07-28 02:06:00,63.5,54.7,29.86,ENE,58,0.0,0.0,73,0.00,,,0.00,WeatherCatV2.41B14,2017-07-28 09:06:00,
2017-07-28 02:16:00,63.8,55.0,29.86,ENE,58,0.0,0.0,73,0.00,,,0.00,WeatherCatV2.41B14,2017-07-28 09:16:00,
2017-07-28 02:26:00,63.7,54.5,29.86,ENE,58,0.0,0.0,72,0.00,,,0.00,WeatherCatV2.41B14,2017-07-28 09:26:00,
2017-07-28 02:36:00,63.0,54.2,29.86,ENE,58,0.0,0.0,73,0.00,,,0.00,WeatherCatV2.41B14,2017-07-28 09:36:00,
2017-07-28 02:46:00,62.1,53.7,29.85,ENE,58,0.0,0.0,74,0.00,,,0.00,WeatherCatV2.41B14,2017-07-28 09:46:00,
2017-07-28 02:56:00,61.6,53.6,29.85,ENE,57,0.0,0.0,75,0.00,,,0.00,WeatherCatV2.41B14,2017-07-28 09:56:00,
2017-07-28 03:06:00,61.6,53.6,29.85,ENE,58,0.0,0.0,75,0.00,,,0.00,WeatherCatV2.41B14,2017-07-28 10:06:00,
2017-07-28 03:16:00,61.1,53.1,29.86,ENE,58,0.0,0.0,75,0.00,,,0.00,WeatherCatV2.41B14,2017-07-28 10:16:00,
2017-07-28 03:26:00,61.4,53.4,29.86,ENE,58,0.0,0.0,75,0.00,,,0.00,WeatherCatV2.41B14,2017-07-28 10:26:00,
2017-07-28 03:36:00,61.5,53.5,29.85,ENE,58,0.0,2.0,75,0.00,,,0.00,WeatherCatV2.41B14,2017-07-28 10:36:00,
2017-07-28 03:46:00,60.3,52.3,29.86,ENE,58,0.0,0.0,75,0.00,,,0.00,WeatherCatV2.41B14,2017-07-28 10:46:00,
2017-07-28 03:56:00,59.1,51.2,29.86,ENE,58,0.0,0.0,75,0.00,,,0.00,WeatherCatV2.41B14,2017-07-28 10:56:00,
2017-07-28 04:06:00,57.6,49.0,29.86,ENE,57,1.0,2.0,73,0.00,,,0.00,WeatherCatV2.41B14,2017-07-28 11:06:00,
2017-07-28 04:16:00,56.7,46.3,29.86,ENE,57,0.0,0.0,68,0.00,,,0.00,WeatherCatV2.41B14,2017-07-28 11:16:00,
2017-07-28 04:26:00,56.1,43.3,29.86,ENE,59,3.0,3.0,62,0.00,,,0.00,WeatherCatV2.41B14,2017-07-28 11:26:00,
2017-07-28 04:36:00,55.3,38.9,29.86,ENE,65,3.0,3.0,54,0.00,,,0.00,WeatherCatV2.41B14,2017-07-28 11:36:00,
2017-07-28 04:56:00,53.9,34.1,29.87,ENE,66,0.0,0.0,47,0.00,,,0.00,WeatherCatV2.41B14,2017-07-28 11:56:00,
2017-07-28 05:06:00,53.3,31.4,29.87,ENE,66,0.0,0.0,43,0.00,,,0.00,WeatherCatV2.41B14,2017-07-28 12:06:00,
2017-07-28 05:16:00,52.4,27.5,29.87,ENE,62,2.0,2.0,38,0.00,,,0.00,WeatherCatV2.41B14,2017-07-28 12:16:00,
2017-07-28 05:26:00,51.8,-7.6,29.88,ENE,62,0.0,2.0,8,0.00,,,0.00,WeatherCatV2.41B14,2017-07-28 12:26:00,
2017-07-28 05:36:00,50.9,-14.1,29.88,ENE,63,2.0,2.0,6,0.00,,,0.00,WeatherCatV2.41B14,2017-07-28 12:36:00,
2017-07-28 05:46:00,49.7,-99.9,29.88,ENE,65,0.0,0.0,1,0.00,,,0.00,WeatherCatV2.41B14,2017-07-28 12:46:00,
2017-07-28 05:56:00,48.3,-99.9,29.89,ENE,66,0.0,0.0,1,0.00,,,0.00,WeatherCatV2.41B14,2017-07-28 12:56:00,
2017-07-28 06:06:00,47.1,-99.9,29.89,ENE,66,0.0,0.0,1,0.00,,,0.00,WeatherCatV2.41B14,2017-07-28 13:06:00,
2017-07-28 06:16:00,46.4,-99.9,29.90,ENE,75,0.0,4.0,1,0.00,,,0.00,WeatherCatV2.41B14,2017-07-28 13:16:00,
2017-07-28 06:26:00,46.3,-99.9,29.90,East,96,0.0,6.0,1,0.00,,,0.00,WeatherCatV2.41B14,2017-07-28 13:26:00,
2017-07-28 06:36:00,46.5,-99.9,29.90,ENE,76,1.0,3.0,1,0.00,,,0.00,WeatherCatV2.41B14,2017-07-28 13:36:00,
2017-07-28 06:46:00,46.7,-99.9,29.90,ENE,77,0.0,0.0,1,0.00,,,0.00,WeatherCatV2.41B14,2017-07-28 13:46:00,
2017-07-28 06:56:00,47.5,-99.9,29.90,ENE,77,0.0,0.0,1,0.00,,,0.00,WeatherCatV2.41B14,2017-07-28 13:56:00,
2017-07-28 07:06:00,48.8,-99.9,29.90,ENE,77,0.0,0.0,1,0.00,,,0.00,WeatherCatV2.41B14,2017-07-28 14:06:00,
2017-07-28 07:16:00,50.0,-99.9,29.91,ENE,76,0.0,0.0,1,0.00,,,0.00,WeatherCatV2.41B14,2017-07-28 14:16:00,
2017-07-28 07:26:00,50.9,-99.9,29.91,ENE,76,0.0,0.0,1,0.00,,,0.00,WeatherCatV2.41B14,2017-07-28 14:26:00,
2017-07-28 07:36:00,51.1,-99.9,29.91,ENE,77,0.0,0.0,1,0.00,,,0.00,WeatherCatV2.41B14,2017-07-28 14:36:00,
2017-07-28 07:46:00,51.4,-99.9,29.91,ENE,77,0.0,0.0,1,0.00,,,0.00,WeatherCatV2.41B14,2017-07-28 14:46:00,
2017-07-28 07:56:00,53.6,-99.9,29.91,ENE,78,0.0,0.0,1,0.00,,,0.00,WeatherCatV2.41B14,2017-07-28 14:56:00,
2017-07-28 08:06:00,57.6,30.1,29.91,SSE,156,0.0,0.0,35,0.00,,,0.00,WeatherCatV2.41B14,2017-07-28 15:06:00,
2017-07-28 08:16:00,59.1,43.9,29.90,SE,136,0.0,0.0,57,0.00,,,0.00,WeatherCatV2.41B14,2017-07-28 15:16:00,
2017-07-28 08:26:00,59.5,48.5,29.90,NE,42,0.0,3.0,67,0.00,,,0.00,WeatherCatV2.41B14,2017-07-28 15:26:00,
2017-07-28 08:36:00,59.6,48.2,29.90,NE,42,0.0,1.0,66,0.00,,,0.00,WeatherCatV2.41B14,2017-07-28 15:36:00,
2017-07-28 08:46:00,60.6,51.5,29.90,NE,42,0.0,0.0,72,0.00,,,0.00,WeatherCatV2.41B14,2017-07-28 15:46:00,
2017-07-28 08:56:00,61.5,52.8,29.91,ESE,105,0.0,1.0,73,0.00,,,0.00,WeatherCatV2.41B14,2017-07-28 15:56:00,
2017-07-28 09:06:00,60.7,50.8,29.92,ENE,75,2.0,4.0,70,0.00,,,0.00,WeatherCatV2.41B14,2017-07-28 16:06:00,